Aviation Digital Data Service (ADDS)

Output produced by METARs form (2039 UTC 31 October 2014)
found at http://aviationweather.gov/adds/metars/
 
KLFT 311720Z 3118/0118 35014G22KT P6SM SKC 
     FM010000 01007KT P6SM SKC 
     FM011500 02010KT P6SM SKC